sensor_id;sensor_type;location;lat;lon;timestamp;P1;durP1;ratioP1;P2;durP2;ratioP2
26106;SDS011;13866;50.748;12.630;2023-06-22T00:01:57;11.73;;;10.67;;
26106;SDS011;13866;50.748;12.630;2023-06-22T00:04:23;13.57;;;11.80;;
26106;SDS011;13866;50.748;12.630;2023-06-22T00:06:48;14.70;;;13.17;;
26106;SDS011;13866;50.748;12.630;2023-06-22T00:09:14;13.90;;;12.33;;
26106;SDS011;13866;50.748;12.630;2023-06-22T00:11:39;12.60;;;11.60;;
26106;SDS011;13866;50.748;12.630;2023-06-22T00:14:05;14.83;;;12.17;;
26106;SDS011;13866;50.748;12.630;2023-06-22T00:16:34;11.33;;;10.43;;
26106;SDS011;13866;50.748;12.630;2023-06-22T00:18:59;19.80;;;11.60;;
26106;SDS011;13866;50.748;12.630;2023-06-22T00:21:27;12.80;;;10.93;;
26106;SDS011;13866;50.748;12.630;2023-06-22T00:23:52;13.33;;;11.77;;
26106;SDS011;13866;50.748;12.630;2023-06-22T00:26:18;15.40;;;10.83;;
26106;SDS011;13866;50.748;12.630;2023-06-22T00:28:44;12.10;;;11.30;;
26106;SDS011;13866;50.748;12.630;2023-06-22T00:31:09;12.33;;;11.10;;
26106;SDS011;13866;50.748;12.630;2023-06-22T00:33:35;13.43;;;12.10;;
26106;SDS011;13866;50.748;12.630;2023-06-22T00:36:00;13.73;;;11.90;;
26106;SDS011;13866;50.748;12.630;2023-06-22T00:38:28;13.13;;;12.20;;
26106;SDS011;13866;50.748;12.630;2023-06-22T00:40:53;14.47;;;13.27;;
26106;SDS011;13866;50.748;12.630;2023-06-22T00:43:19;11.50;;;10.73;;
26106;SDS011;13866;50.748;12.630;2023-06-22T00:45:45;14.23;;;11.60;;
26106;SDS011;13866;50.748;12.630;2023-06-22T00:48:11;10.97;;;9.73;;
26106;SDS011;13866;50.748;12.630;2023-06-22T00:50:38;13.10;;;11.80;;
26106;SDS011;13866;50.748;12.630;2023-06-22T00:53:05;13.30;;;12.27;;
26106;SDS011;13866;50.748;12.630;2023-06-22T00:55:42;14.83;;;12.37;;
26106;SDS011;13866;50.748;12.630;2023-06-22T00:58:10;13.67;;;12.23;;
26106;SDS011;13866;50.748;12.630;2023-06-22T01:00:37;12.20;;;11.13;;
26106;SDS011;13866;50.748;12.630;2023-06-22T01:03:03;12.77;;;11.97;;
26106;SDS011;13866;50.748;12.630;2023-06-22T01:05:33;13.37;;;11.97;;
26106;SDS011;13866;50.748;12.630;2023-06-22T01:10:50;12.53;;;11.40;;
26106;SDS011;13866;50.748;12.630;2023-06-22T01:15:57;11.83;;;10.53;;
26106;SDS011;13866;50.748;12.630;2023-06-22T01:18:28;12.17;;;11.07;;
26106;SDS011;13866;50.748;12.630;2023-06-22T01:20:56;13.70;;;12.30;;
26106;SDS011;13866;50.748;12.630;2023-06-22T01:26:20;18.13;;;11.30;;
26106;SDS011;13866;50.748;12.630;2023-06-22T01:28:54;12.70;;;11.73;;
26106;SDS011;13866;50.748;12.630;2023-06-22T01:31:22;18.20;;;10.37;;
26106;SDS011;13866;50.748;12.630;2023-06-22T01:33:51;10.40;;;9.80;;
26106;SDS011;13866;50.748;12.630;2023-06-22T01:36:19;12.90;;;11.17;;
26106;SDS011;13866;50.748;12.630;2023-06-22T01:38:47;17.30;;;12.60;;
26106;SDS011;13866;50.748;12.630;2023-06-22T01:41:14;23.70;;;12.07;;
26106;SDS011;13866;50.748;12.630;2023-06-22T01:43:41;22.30;;;11.37;;
26106;SDS011;13866;50.748;12.630;2023-06-22T01:46:07;20.27;;;13.00;;
26106;SDS011;13866;50.748;12.630;2023-06-22T01:48:33;13.27;;;12.07;;
26106;SDS011;13866;50.748;12.630;2023-06-22T01:50:59;12.73;;;11.90;;
26106;SDS011;13866;50.748;12.630;2023-06-22T01:53:25;14.20;;;12.80;;
26106;SDS011;13866;50.748;12.630;2023-06-22T01:55:50;13.10;;;12.20;;
26106;SDS011;13866;50.748;12.630;2023-06-22T01:58:16;12.60;;;11.40;;
26106;SDS011;13866;50.748;12.630;2023-06-22T02:00:44;15.53;;;12.30;;
26106;SDS011;13866;50.748;12.630;2023-06-22T02:03:18;19.43;;;11.30;;
26106;SDS011;13866;50.748;12.630;2023-06-22T02:05:52;13.17;;;11.80;;
26106;SDS011;13866;50.748;12.630;2023-06-22T02:08:23;15.40;;;12.33;;
26106;SDS011;13866;50.748;12.630;2023-06-22T02:10:53;15.33;;;11.77;;
26106;SDS011;13866;50.748;12.630;2023-06-22T02:13:20;12.33;;;11.53;;
26106;SDS011;13866;50.748;12.630;2023-06-22T02:15:46;13.93;;;11.63;;
26106;SDS011;13866;50.748;12.630;2023-06-22T02:18:13;11.73;;;10.60;;
26106;SDS011;13866;50.748;12.630;2023-06-22T02:20:39;14.83;;;10.90;;
26106;SDS011;13866;50.748;12.630;2023-06-22T02:23:05;12.47;;;11.57;;
26106;SDS011;13866;50.748;12.630;2023-06-22T02:25:32;15.63;;;12.80;;
26106;SDS011;13866;50.748;12.630;2023-06-22T02:27:58;13.17;;;11.50;;
26106;SDS011;13866;50.748;12.630;2023-06-22T02:30:23;14.10;;;11.73;;
26106;SDS011;13866;50.748;12.630;2023-06-22T02:32:48;14.10;;;10.80;;
26106;SDS011;13866;50.748;12.630;2023-06-22T02:35:14;15.60;;;12.20;;
26106;SDS011;13866;50.748;12.630;2023-06-22T02:37:40;11.90;;;10.77;;
26106;SDS011;13866;50.748;12.630;2023-06-22T02:40:07;12.43;;;11.20;;
26106;SDS011;13866;50.748;12.630;2023-06-22T02:42:36;11.83;;;11.13;;
26106;SDS011;13866;50.748;12.630;2023-06-22T02:45:02;12.60;;;11.90;;
26106;SDS011;13866;50.748;12.630;2023-06-22T02:47:29;12.50;;;11.60;;
26106;SDS011;13866;50.748;12.630;2023-06-22T02:49:54;12.97;;;12.07;;
26106;SDS011;13866;50.748;12.630;2023-06-22T02:52:20;13.07;;;11.80;;
26106;SDS011;13866;50.748;12.630;2023-06-22T02:54:45;12.60;;;11.60;;
26106;SDS011;13866;50.748;12.630;2023-06-22T02:57:11;11.73;;;10.93;;
26106;SDS011;13866;50.748;12.630;2023-06-22T02:59:39;12.17;;;11.33;;
26106;SDS011;13866;50.748;12.630;2023-06-22T03:02:05;14.03;;;12.83;;
26106;SDS011;13866;50.748;12.630;2023-06-22T03:04:31;13.13;;;12.23;;
26106;SDS011;13866;50.748;12.630;2023-06-22T03:06:57;13.90;;;10.70;;
26106;SDS011;13866;50.748;12.630;2023-06-22T03:09:26;11.03;;;9.93;;
26106;SDS011;13866;50.748;12.630;2023-06-22T03:11:55;11.00;;;10.20;;
26106;SDS011;13866;50.748;12.630;2023-06-22T03:14:20;11.17;;;10.13;;
26106;SDS011;13866;50.748;12.630;2023-06-22T03:16:46;11.47;;;10.40;;
26106;SDS011;13866;50.748;12.630;2023-06-22T03:19:11;11.30;;;10.60;;
26106;SDS011;13866;50.748;12.630;2023-06-22T03:21:37;10.80;;;9.90;;
26106;SDS011;13866;50.748;12.630;2023-06-22T03:24:06;12.03;;;11.03;;
26106;SDS011;13866;50.748;12.630;2023-06-22T03:26:32;12.37;;;11.30;;
26106;SDS011;13866;50.748;12.630;2023-06-22T03:28:59;20.90;;;13.17;;
26106;SDS011;13866;50.748;12.630;2023-06-22T03:31:24;13.97;;;12.13;;
26106;SDS011;13866;50.748;12.630;2023-06-22T03:33:50;14.63;;;12.80;;
26106;SDS011;13866;50.748;12.630;2023-06-22T03:36:16;13.73;;;12.20;;
26106;SDS011;13866;50.748;12.630;2023-06-22T03:38:49;12.17;;;11.27;;
26106;SDS011;13866;50.748;12.630;2023-06-22T03:41:15;12.10;;;11.20;;
26106;SDS011;13866;50.748;12.630;2023-06-22T03:43:41;12.50;;;11.17;;
26106;SDS011;13866;50.748;12.630;2023-06-22T03:46:06;13.07;;;11.70;;
26106;SDS011;13866;50.748;12.630;2023-06-22T03:48:32;12.40;;;11.20;;
26106;SDS011;13866;50.748;12.630;2023-06-22T03:50:59;11.40;;;10.27;;
26106;SDS011;13866;50.748;12.630;2023-06-22T03:53:25;12.00;;;11.10;;
26106;SDS011;13866;50.748;12.630;2023-06-22T03:55:51;12.43;;;11.43;;
26106;SDS011;13866;50.748;12.630;2023-06-22T03:58:18;15.13;;;10.47;;
26106;SDS011;13866;50.748;12.630;2023-06-22T04:00:45;11.90;;;10.77;;
26106;SDS011;13866;50.748;12.630;2023-06-22T04:03:11;12.53;;;11.50;;
26106;SDS011;13866;50.748;12.630;2023-06-22T04:05:38;16.03;;;12.90;;
26106;SDS011;13866;50.748;12.630;2023-06-22T04:08:04;12.00;;;11.37;;
26106;SDS011;13866;50.748;12.630;2023-06-22T04:10:30;13.13;;;12.33;;
26106;SDS011;13866;50.748;12.630;2023-06-22T04:12:55;12.83;;;12.03;;
26106;SDS011;13866;50.748;12.630;2023-06-22T04:15:21;13.30;;;11.10;;
26106;SDS011;13866;50.748;12.630;2023-06-22T04:17:46;13.90;;;11.87;;
26106;SDS011;13866;50.748;12.630;2023-06-22T04:20:12;18.10;;;13.17;;
26106;SDS011;13866;50.748;12.630;2023-06-22T04:22:37;16.00;;;12.03;;
26106;SDS011;13866;50.748;12.630;2023-06-22T04:25:03;13.40;;;12.03;;
26106;SDS011;13866;50.748;12.630;2023-06-22T04:27:32;14.93;;;11.63;;
26106;SDS011;13866;50.748;12.630;2023-06-22T04:30:02;14.33;;;13.03;;
26106;SDS011;13866;50.748;12.630;2023-06-22T04:32:31;13.63;;;12.27;;
26106;SDS011;13866;50.748;12.630;2023-06-22T04:34:57;13.33;;;12.30;;
26106;SDS011;13866;50.748;12.630;2023-06-22T04:37:23;12.93;;;11.90;;
26106;SDS011;13866;50.748;12.630;2023-06-22T04:39:49;14.23;;;12.80;;
26106;SDS011;13866;50.748;12.630;2023-06-22T04:42:15;14.77;;;12.57;;
26106;SDS011;13866;50.748;12.630;2023-06-22T04:44:40;14.20;;;13.30;;
26106;SDS011;13866;50.748;12.630;2023-06-22T04:47:07;13.63;;;12.73;;
26106;SDS011;13866;50.748;12.630;2023-06-22T04:49:33;12.70;;;11.97;;
26106;SDS011;13866;50.748;12.630;2023-06-22T04:52:02;15.63;;;14.13;;
26106;SDS011;13866;50.748;12.630;2023-06-22T04:54:33;12.23;;;11.53;;
26106;SDS011;13866;50.748;12.630;2023-06-22T04:57:00;15.63;;;14.40;;
26106;SDS011;13866;50.748;12.630;2023-06-22T04:59:27;14.90;;;13.90;;
26106;SDS011;13866;50.748;12.630;2023-06-22T05:01:58;19.33;;;13.40;;
26106;SDS011;13866;50.748;12.630;2023-06-22T05:04:26;15.87;;;14.63;;
26106;SDS011;13866;50.748;12.630;2023-06-22T05:06:56;13.40;;;12.50;;
26106;SDS011;13866;50.748;12.630;2023-06-22T05:09:22;12.80;;;11.73;;
26106;SDS011;13866;50.748;12.630;2023-06-22T05:11:49;13.47;;;12.17;;
26106;SDS011;13866;50.748;12.630;2023-06-22T05:14:15;12.37;;;11.27;;
26106;SDS011;13866;50.748;12.630;2023-06-22T05:16:41;12.53;;;11.63;;
26106;SDS011;13866;50.748;12.630;2023-06-22T05:19:07;13.40;;;12.30;;
26106;SDS011;13866;50.748;12.630;2023-06-22T05:21:33;12.33;;;11.07;;
26106;SDS011;13866;50.748;12.630;2023-06-22T05:23:59;22.23;;;13.30;;
26106;SDS011;13866;50.748;12.630;2023-06-22T05:26:27;13.70;;;12.43;;
26106;SDS011;13866;50.748;12.630;2023-06-22T05:28:53;13.57;;;12.47;;
26106;SDS011;13866;50.748;12.630;2023-06-22T05:31:19;14.33;;;12.87;;
26106;SDS011;13866;50.748;12.630;2023-06-22T05:33:45;11.20;;;10.20;;
26106;SDS011;13866;50.748;12.630;2023-06-22T05:36:11;13.13;;;12.03;;
26106;SDS011;13866;50.748;12.630;2023-06-22T05:38:37;13.20;;;12.07;;
26106;SDS011;13866;50.748;12.630;2023-06-22T05:41:03;18.33;;;11.07;;
26106;SDS011;13866;50.748;12.630;2023-06-22T05:43:29;10.90;;;9.90;;
26106;SDS011;13866;50.748;12.630;2023-06-22T05:45:55;11.93;;;10.73;;
26106;SDS011;13866;50.748;12.630;2023-06-22T05:48:21;18.03;;;9.80;;
26106;SDS011;13866;50.748;12.630;2023-06-22T05:50:46;14.77;;;11.20;;
26106;SDS011;13866;50.748;12.630;2023-06-22T05:53:12;14.67;;;10.73;;
26106;SDS011;13866;50.748;12.630;2023-06-22T05:55:37;10.20;;;9.20;;
26106;SDS011;13866;50.748;12.630;2023-06-22T05:58:03;11.40;;;10.27;;
26106;SDS011;13866;50.748;12.630;2023-06-22T06:00:28;11.57;;;10.40;;
26106;SDS011;13866;50.748;12.630;2023-06-22T06:02:54;15.23;;;9.93;;
26106;SDS011;13866;50.748;12.630;2023-06-22T06:05:20;13.00;;;11.60;;
26106;SDS011;13866;50.748;12.630;2023-06-22T06:07:45;11.67;;;10.77;;
26106;SDS011;13866;50.748;12.630;2023-06-22T06:10:11;19.20;;;11.20;;
26106;SDS011;13866;50.748;12.630;2023-06-22T06:12:37;11.13;;;10.10;;
26106;SDS011;13866;50.748;12.630;2023-06-22T06:15:03;14.37;;;11.30;;
26106;SDS011;13866;50.748;12.630;2023-06-22T06:17:29;20.13;;;10.90;;
26106;SDS011;13866;50.748;12.630;2023-06-22T06:19:55;12.83;;;10.13;;
26106;SDS011;13866;50.748;12.630;2023-06-22T06:22:20;11.97;;;10.50;;
26106;SDS011;13866;50.748;12.630;2023-06-22T06:24:48;12.03;;;11.00;;
26106;SDS011;13866;50.748;12.630;2023-06-22T06:27:17;12.70;;;11.40;;
26106;SDS011;13866;50.748;12.630;2023-06-22T06:29:57;10.67;;;9.80;;
26106;SDS011;13866;50.748;12.630;2023-06-22T06:32:40;10.70;;;9.97;;
26106;SDS011;13866;50.748;12.630;2023-06-22T06:35:07;9.70;;;9.00;;
26106;SDS011;13866;50.748;12.630;2023-06-22T06:37:36;11.07;;;10.17;;
26106;SDS011;13866;50.748;12.630;2023-06-22T06:40:03;10.47;;;9.20;;
26106;SDS011;13866;50.748;12.630;2023-06-22T06:42:39;9.87;;;8.90;;
26106;SDS011;13866;50.748;12.630;2023-06-22T06:45:07;13.07;;;9.67;;
26106;SDS011;13866;50.748;12.630;2023-06-22T06:47:33;9.73;;;8.60;;
26106;SDS011;13866;50.748;12.630;2023-06-22T06:49:59;10.40;;;9.40;;
26106;SDS011;13866;50.748;12.630;2023-06-22T06:52:24;14.80;;;9.30;;
26106;SDS011;13866;50.748;12.630;2023-06-22T06:54:50;10.30;;;9.40;;
26106;SDS011;13866;50.748;12.630;2023-06-22T06:57:17;9.63;;;8.80;;
26106;SDS011;13866;50.748;12.630;2023-06-22T06:59:42;22.83;;;8.63;;
26106;SDS011;13866;50.748;12.630;2023-06-22T07:02:08;9.10;;;8.60;;
26106;SDS011;13866;50.748;12.630;2023-06-22T07:04:33;8.70;;;8.10;;
26106;SDS011;13866;50.748;12.630;2023-06-22T07:07:00;9.67;;;9.03;;
26106;SDS011;13866;50.748;12.630;2023-06-22T07:09:26;9.27;;;8.13;;
26106;SDS011;13866;50.748;12.630;2023-06-22T07:11:52;8.93;;;8.53;;
26106;SDS011;13866;50.748;12.630;2023-06-22T07:14:18;8.37;;;7.87;;
26106;SDS011;13866;50.748;12.630;2023-06-22T07:16:43;9.47;;;9.00;;
26106;SDS011;13866;50.748;12.630;2023-06-22T07:19:11;8.97;;;8.30;;
26106;SDS011;13866;50.748;12.630;2023-06-22T07:21:37;10.67;;;8.67;;
26106;SDS011;13866;50.748;12.630;2023-06-22T07:24:02;9.30;;;7.83;;
26106;SDS011;13866;50.748;12.630;2023-06-22T07:26:28;7.60;;;7.30;;
26106;SDS011;13866;50.748;12.630;2023-06-22T07:28:53;9.07;;;8.37;;
26106;SDS011;13866;50.748;12.630;2023-06-22T07:31:19;11.13;;;7.77;;
26106;SDS011;13866;50.748;12.630;2023-06-22T07:33:44;8.03;;;7.53;;
26106;SDS011;13866;50.748;12.630;2023-06-22T07:36:10;12.77;;;8.30;;
26106;SDS011;13866;50.748;12.630;2023-06-22T07:38:35;8.23;;;7.80;;
26106;SDS011;13866;50.748;12.630;2023-06-22T07:41:01;7.00;;;6.70;;
26106;SDS011;13866;50.748;12.630;2023-06-22T07:43:30;7.53;;;7.30;;
26106;SDS011;13866;50.748;12.630;2023-06-22T07:45:58;7.80;;;7.47;;
26106;SDS011;13866;50.748;12.630;2023-06-22T07:48:23;8.10;;;7.70;;
26106;SDS011;13866;50.748;12.630;2023-06-22T07:50:49;8.17;;;7.50;;
26106;SDS011;13866;50.748;12.630;2023-06-22T07:53:14;7.10;;;6.90;;
26106;SDS011;13866;50.748;12.630;2023-06-22T07:55:40;7.83;;;7.63;;
26106;SDS011;13866;50.748;12.630;2023-06-22T07:58:05;8.23;;;7.83;;
26106;SDS011;13866;50.748;12.630;2023-06-22T08:00:31;9.03;;;8.40;;
26106;SDS011;13866;50.748;12.630;2023-06-22T08:02:58;8.30;;;7.27;;
26106;SDS011;13866;50.748;12.630;2023-06-22T08:05:23;8.33;;;7.67;;
26106;SDS011;13866;50.748;12.630;2023-06-22T08:07:49;8.27;;;7.87;;
26106;SDS011;13866;50.748;12.630;2023-06-22T08:10:15;7.27;;;7.07;;
26106;SDS011;13866;50.748;12.630;2023-06-22T08:12:41;7.50;;;7.20;;
26106;SDS011;13866;50.748;12.630;2023-06-22T08:15:07;8.90;;;8.17;;
26106;SDS011;13866;50.748;12.630;2023-06-22T08:17:34;7.97;;;7.40;;
26106;SDS011;13866;50.748;12.630;2023-06-22T08:20:01;8.77;;;8.20;;
26106;SDS011;13866;50.748;12.630;2023-06-22T08:22:30;7.47;;;7.20;;
26106;SDS011;13866;50.748;12.630;2023-06-22T08:24:58;7.80;;;7.30;;
26106;SDS011;13866;50.748;12.630;2023-06-22T08:27:23;8.23;;;7.93;;
26106;SDS011;13866;50.748;12.630;2023-06-22T08:29:49;8.00;;;7.70;;
26106;SDS011;13866;50.748;12.630;2023-06-22T08:32:15;8.50;;;8.10;;
26106;SDS011;13866;50.748;12.630;2023-06-22T08:34:41;7.53;;;7.33;;
26106;SDS011;13866;50.748;12.630;2023-06-22T08:37:08;8.30;;;7.83;;
26106;SDS011;13866;50.748;12.630;2023-06-22T08:39:34;7.77;;;7.40;;
26106;SDS011;13866;50.748;12.630;2023-06-22T08:41:59;8.03;;;7.67;;
26106;SDS011;13866;50.748;12.630;2023-06-22T08:44:25;7.20;;;6.60;;
26106;SDS011;13866;50.748;12.630;2023-06-22T08:46:50;7.40;;;7.00;;
26106;SDS011;13866;50.748;12.630;2023-06-22T08:49:16;7.60;;;7.00;;
26106;SDS011;13866;50.748;12.630;2023-06-22T08:51:41;7.90;;;7.13;;
26106;SDS011;13866;50.748;12.630;2023-06-22T08:54:07;6.50;;;6.33;;
26106;SDS011;13866;50.748;12.630;2023-06-22T08:56:32;6.40;;;6.23;;
26106;SDS011;13866;50.748;12.630;2023-06-22T08:58:58;8.33;;;6.70;;
26106;SDS011;13866;50.748;12.630;2023-06-22T09:01:23;6.97;;;6.60;;
26106;SDS011;13866;50.748;12.630;2023-06-22T09:03:49;6.63;;;6.50;;
26106;SDS011;13866;50.748;12.630;2023-06-22T09:06:19;6.00;;;5.70;;
26106;SDS011;13866;50.748;12.630;2023-06-22T09:08:46;18.50;;;6.33;;
26106;SDS011;13866;50.748;12.630;2023-06-22T09:11:12;5.97;;;5.67;;
26106;SDS011;13866;50.748;12.630;2023-06-22T09:13:37;6.77;;;6.60;;
26106;SDS011;13866;50.748;12.630;2023-06-22T09:16:03;6.37;;;6.17;;
26106;SDS011;13866;50.748;12.630;2023-06-22T09:18:28;6.97;;;6.20;;
26106;SDS011;13866;50.748;12.630;2023-06-22T09:20:54;6.60;;;6.33;;
26106;SDS011;13866;50.748;12.630;2023-06-22T09:23:19;6.80;;;6.57;;
26106;SDS011;13866;50.748;12.630;2023-06-22T09:25:45;9.50;;;6.47;;
26106;SDS011;13866;50.748;12.630;2023-06-22T09:28:12;7.27;;;6.97;;
26106;SDS011;13866;50.748;12.630;2023-06-22T09:30:38;6.20;;;6.00;;
26106;SDS011;13866;50.748;12.630;2023-06-22T09:33:04;6.70;;;6.30;;
26106;SDS011;13866;50.748;12.630;2023-06-22T09:35:29;6.60;;;6.27;;
26106;SDS011;13866;50.748;12.630;2023-06-22T09:37:55;6.50;;;6.23;;
26106;SDS011;13866;50.748;12.630;2023-06-22T09:40:20;7.57;;;6.30;;
26106;SDS011;13866;50.748;12.630;2023-06-22T09:42:46;7.40;;;7.00;;
26106;SDS011;13866;50.748;12.630;2023-06-22T09:45:11;6.80;;;6.60;;
26106;SDS011;13866;50.748;12.630;2023-06-22T09:47:37;7.70;;;6.63;;
26106;SDS011;13866;50.748;12.630;2023-06-22T09:50:02;11.57;;;10.40;;
26106;SDS011;13866;50.748;12.630;2023-06-22T09:52:28;8.07;;;7.47;;
26106;SDS011;13866;50.748;12.630;2023-06-22T09:54:54;8.33;;;6.60;;
26106;SDS011;13866;50.748;12.630;2023-06-22T09:57:19;7.80;;;7.30;;
26106;SDS011;13866;50.748;12.630;2023-06-22T09:59:44;6.90;;;6.60;;
26106;SDS011;13866;50.748;12.630;2023-06-22T10:02:10;6.87;;;6.53;;
26106;SDS011;13866;50.748;12.630;2023-06-22T10:04:35;7.07;;;6.40;;
26106;SDS011;13866;50.748;12.630;2023-06-22T10:07:01;7.03;;;6.77;;
26106;SDS011;13866;50.748;12.630;2023-06-22T10:09:27;7.60;;;7.07;;
26106;SDS011;13866;50.748;12.630;2023-06-22T10:11:53;6.50;;;6.20;;
26106;SDS011;13866;50.748;12.630;2023-06-22T10:14:18;11.20;;;7.20;;
26106;SDS011;13866;50.748;12.630;2023-06-22T10:16:44;8.90;;;8.20;;
26106;SDS011;13866;50.748;12.630;2023-06-22T10:19:09;7.50;;;7.10;;
26106;SDS011;13866;50.748;12.630;2023-06-22T10:21:35;8.10;;;6.93;;
26106;SDS011;13866;50.748;12.630;2023-06-22T10:24:01;5.83;;;5.53;;
26106;SDS011;13866;50.748;12.630;2023-06-22T10:26:31;7.10;;;6.70;;
26106;SDS011;13866;50.748;12.630;2023-06-22T10:28:58;6.40;;;6.00;;
26106;SDS011;13866;50.748;12.630;2023-06-22T10:31:23;7.10;;;6.47;;
26106;SDS011;13866;50.748;12.630;2023-06-22T10:33:49;7.17;;;6.60;;
26106;SDS011;13866;50.748;12.630;2023-06-22T10:36:14;8.00;;;7.23;;
26106;SDS011;13866;50.748;12.630;2023-06-22T10:38:40;6.30;;;5.90;;
26106;SDS011;13866;50.748;12.630;2023-06-22T10:41:05;6.63;;;6.33;;
26106;SDS011;13866;50.748;12.630;2023-06-22T10:43:31;7.53;;;6.87;;
26106;SDS011;13866;50.748;12.630;2023-06-22T10:45:57;12.67;;;6.97;;
26106;SDS011;13866;50.748;12.630;2023-06-22T10:48:22;7.50;;;7.10;;
26106;SDS011;13866;50.748;12.630;2023-06-22T10:50:47;6.70;;;6.37;;
26106;SDS011;13866;50.748;12.630;2023-06-22T10:53:13;7.20;;;6.90;;
26106;SDS011;13866;50.748;12.630;2023-06-22T10:55:38;6.00;;;5.80;;
26106;SDS011;13866;50.748;12.630;2023-06-22T10:58:04;6.70;;;6.30;;
26106;SDS011;13866;50.748;12.630;2023-06-22T11:00:29;6.70;;;5.73;;
26106;SDS011;13866;50.748;12.630;2023-06-22T11:02:55;6.20;;;6.00;;
26106;SDS011;13866;50.748;12.630;2023-06-22T11:05:21;6.40;;;5.90;;
26106;SDS011;13866;50.748;12.630;2023-06-22T11:07:47;7.07;;;6.60;;
26106;SDS011;13866;50.748;12.630;2023-06-22T11:10:14;5.93;;;5.53;;
26106;SDS011;13866;50.748;12.630;2023-06-22T11:12:39;10.63;;;5.97;;
26106;SDS011;13866;50.748;12.630;2023-06-22T11:15:05;6.70;;;6.30;;
26106;SDS011;13866;50.748;12.630;2023-06-22T11:17:31;7.27;;;6.73;;
26106;SDS011;13866;50.748;12.630;2023-06-22T11:19:57;5.77;;;5.53;;
26106;SDS011;13866;50.748;12.630;2023-06-22T11:22:22;6.60;;;6.10;;
26106;SDS011;13866;50.748;12.630;2023-06-22T11:24:47;5.80;;;5.60;;
26106;SDS011;13866;50.748;12.630;2023-06-22T11:27:13;5.23;;;5.03;;
26106;SDS011;13866;50.748;12.630;2023-06-22T11:29:39;6.20;;;5.60;;
26106;SDS011;13866;50.748;12.630;2023-06-22T11:32:06;5.90;;;5.80;;
26106;SDS011;13866;50.748;12.630;2023-06-22T11:34:32;6.50;;;6.20;;
26106;SDS011;13866;50.748;12.630;2023-06-22T11:36:58;6.30;;;5.97;;
26106;SDS011;13866;50.748;12.630;2023-06-22T11:39:23;5.90;;;5.70;;
26106;SDS011;13866;50.748;12.630;2023-06-22T11:41:49;5.97;;;5.43;;
26106;SDS011;13866;50.748;12.630;2023-06-22T11:44:14;5.37;;;4.93;;
26106;SDS011;13866;50.748;12.630;2023-06-22T11:46:39;5.57;;;5.37;;
26106;SDS011;13866;50.748;12.630;2023-06-22T11:49:05;6.73;;;6.10;;
26106;SDS011;13866;50.748;12.630;2023-06-22T11:51:30;8.13;;;5.70;;
26106;SDS011;13866;50.748;12.630;2023-06-22T11:53:56;5.90;;;5.50;;
26106;SDS011;13866;50.748;12.630;2023-06-22T11:56:23;5.80;;;5.70;;
26106;SDS011;13866;50.748;12.630;2023-06-22T11:58:48;6.20;;;5.20;;
26106;SDS011;13866;50.748;12.630;2023-06-22T12:01:14;8.53;;;6.53;;
26106;SDS011;13866;50.748;12.630;2023-06-22T12:03:40;8.27;;;5.80;;
26106;SDS011;13866;50.748;12.630;2023-06-22T12:06:06;5.20;;;5.07;;
26106;SDS011;13866;50.748;12.630;2023-06-22T12:08:31;7.10;;;6.23;;
26106;SDS011;13866;50.748;12.630;2023-06-22T12:10:57;5.10;;;4.90;;
26106;SDS011;13866;50.748;12.630;2023-06-22T12:13:22;6.17;;;5.67;;
26106;SDS011;13866;50.748;12.630;2023-06-22T12:15:48;5.87;;;4.97;;
26106;SDS011;13866;50.748;12.630;2023-06-22T12:18:13;5.50;;;5.30;;
26106;SDS011;13866;50.748;12.630;2023-06-22T12:20:40;6.63;;;6.20;;
26106;SDS011;13866;50.748;12.630;2023-06-22T12:23:05;12.30;;;5.20;;
26106;SDS011;13866;50.748;12.630;2023-06-22T12:25:31;5.70;;;5.40;;
26106;SDS011;13866;50.748;12.630;2023-06-22T12:27:56;6.33;;;5.73;;
26106;SDS011;13866;50.748;12.630;2023-06-22T12:30:22;11.40;;;5.77;;
26106;SDS011;13866;50.748;12.630;2023-06-22T12:32:47;6.10;;;5.90;;
26106;SDS011;13866;50.748;12.630;2023-06-22T12:35:13;6.97;;;6.70;;
26106;SDS011;13866;50.748;12.630;2023-06-22T12:37:40;11.73;;;6.20;;
26106;SDS011;13866;50.748;12.630;2023-06-22T12:40:06;5.93;;;5.70;;
26106;SDS011;13866;50.748;12.630;2023-06-22T12:42:32;6.03;;;5.83;;
26106;SDS011;13866;50.748;12.630;2023-06-22T12:44:58;6.30;;;5.83;;
26106;SDS011;13866;50.748;12.630;2023-06-22T12:47:23;7.33;;;6.63;;
26106;SDS011;13866;50.748;12.630;2023-06-22T12:49:48;6.50;;;6.00;;
26106;SDS011;13866;50.748;12.630;2023-06-22T12:52:14;10.30;;;6.27;;
26106;SDS011;13866;50.748;12.630;2023-06-22T12:54:40;5.70;;;5.60;;
26106;SDS011;13866;50.748;12.630;2023-06-22T12:57:06;7.53;;;7.03;;
26106;SDS011;13866;50.748;12.630;2023-06-22T12:59:31;10.93;;;6.30;;
26106;SDS011;13866;50.748;12.630;2023-06-22T13:01:57;8.00;;;6.13;;
26106;SDS011;13866;50.748;12.630;2023-06-22T13:04:22;6.73;;;6.30;;
26106;SDS011;13866;50.748;12.630;2023-06-22T13:06:48;6.80;;;6.50;;
26106;SDS011;13866;50.748;12.630;2023-06-22T13:09:14;6.47;;;6.07;;
26106;SDS011;13866;50.748;12.630;2023-06-22T13:11:40;6.83;;;6.30;;
26106;SDS011;13866;50.748;12.630;2023-06-22T13:14:06;6.43;;;6.13;;
26106;SDS011;13866;50.748;12.630;2023-06-22T13:16:32;7.60;;;7.10;;
26106;SDS011;13866;50.748;12.630;2023-06-22T13:18:57;10.00;;;7.73;;
26106;SDS011;13866;50.748;12.630;2023-06-22T13:21:23;7.37;;;6.93;;
26106;SDS011;13866;50.748;12.630;2023-06-22T13:23:48;8.47;;;6.47;;
26106;SDS011;13866;50.748;12.630;2023-06-22T13:26:13;13.70;;;6.63;;
26106;SDS011;13866;50.748;12.630;2023-06-22T13:28:39;7.97;;;7.57;;
26106;SDS011;13866;50.748;12.630;2023-06-22T13:31:04;7.63;;;7.07;;
26106;SDS011;13866;50.748;12.630;2023-06-22T13:33:30;7.30;;;6.90;;
26106;SDS011;13866;50.748;12.630;2023-06-22T13:35:56;6.53;;;6.20;;
26106;SDS011;13866;50.748;12.630;2023-06-22T13:38:21;11.10;;;6.53;;
26106;SDS011;13866;50.748;12.630;2023-06-22T13:40:47;9.37;;;7.60;;
26106;SDS011;13866;50.748;12.630;2023-06-22T13:43:13;8.23;;;7.40;;
26106;SDS011;13866;50.748;12.630;2023-06-22T13:45:39;8.03;;;7.53;;
26106;SDS011;13866;50.748;12.630;2023-06-22T13:48:04;7.33;;;7.00;;
26106;SDS011;13866;50.748;12.630;2023-06-22T13:50:30;7.13;;;6.70;;
26106;SDS011;13866;50.748;12.630;2023-06-22T13:52:55;7.30;;;7.00;;
26106;SDS011;13866;50.748;12.630;2023-06-22T13:55:21;7.13;;;6.80;;
26106;SDS011;13866;50.748;12.630;2023-06-22T13:57:48;7.20;;;6.80;;
26106;SDS011;13866;50.748;12.630;2023-06-22T14:00:14;14.73;;;8.50;;
26106;SDS011;13866;50.748;12.630;2023-06-22T14:02:40;9.70;;;8.13;;
26106;SDS011;13866;50.748;12.630;2023-06-22T14:05:06;12.23;;;7.80;;
26106;SDS011;13866;50.748;12.630;2023-06-22T14:07:32;13.87;;;7.60;;
26106;SDS011;13866;50.748;12.630;2023-06-22T14:09:58;6.93;;;6.37;;
26106;SDS011;13866;50.748;12.630;2023-06-22T14:12:24;8.33;;;7.63;;
26106;SDS011;13866;50.748;12.630;2023-06-22T14:14:50;8.87;;;8.20;;
26106;SDS011;13866;50.748;12.630;2023-06-22T14:17:15;11.80;;;7.30;;
26106;SDS011;13866;50.748;12.630;2023-06-22T14:19:41;11.93;;;8.53;;
26106;SDS011;13866;50.748;12.630;2023-06-22T14:22:06;7.93;;;7.43;;
26106;SDS011;13866;50.748;12.630;2023-06-22T14:24:32;8.93;;;7.17;;